createdAt,value
2022-10-31T00:00:43.008Z,0.00
2022-10-31T00:01:42.982Z,0.00
2022-10-31T00:02:43.054Z,0.00
2022-10-31T00:03:42.994Z,0.00
2022-10-31T00:04:42.938Z,0.00
2022-10-31T00:05:42.907Z,0.00
2022-10-31T00:06:42.947Z,0.00
2022-10-31T00:07:42.900Z,0.00
2022-10-31T00:08:42.881Z,0.00
2022-10-31T00:09:42.940Z,0.00
2022-10-31T00:10:42.890Z,0.00
2022-10-31T00:11:42.851Z,0.00
2022-10-31T00:12:42.885Z,0.00
2022-10-31T00:13:42.837Z,0.00
2022-10-31T00:14:42.912Z,0.00
2022-10-31T00:15:42.872Z,0.00
2022-10-31T00:16:42.809Z,0.00
2022-10-31T00:17:42.782Z,0.00
2022-10-31T00:18:42.862Z,0.00
2022-10-31T00:19:42.797Z,0.00
2022-10-31T00:20:42.782Z,0.00
2022-10-31T00:21:42.802Z,0.00
2022-10-31T00:22:42.760Z,0.00
2022-10-31T00:23:42.882Z,0.00
2022-10-31T00:24:42.930Z,0.00
2022-10-31T00:25:44.060Z,0.00
2022-10-31T00:26:42.706Z,0.00
2022-10-31T00:27:42.689Z,0.00
2022-10-31T00:28:42.700Z,0.00
2022-10-31T00:29:42.712Z,0.00
2022-10-31T00:30:42.932Z,0.00
2022-10-31T00:31:42.655Z,0.00
2022-10-31T00:32:42.644Z,0.00
2022-10-31T00:33:42.662Z,0.00
2022-10-31T00:34:42.936Z,0.00
2022-10-31T00:35:42.686Z,0.00
2022-10-31T00:36:42.644Z,0.00
2022-10-31T00:37:42.601Z,0.00
2022-10-31T00:38:42.626Z,0.00
2022-10-31T00:39:42.637Z,0.00
2022-10-31T00:40:42.568Z,0.00
2022-10-31T00:41:42.602Z,0.00
2022-10-31T00:42:42.616Z,0.00
2022-10-31T00:43:42.566Z,0.00
2022-10-31T00:44:42.562Z,0.00
2022-10-31T00:45:42.579Z,0.00
2022-10-31T00:46:42.552Z,0.00
2022-10-31T00:47:42.492Z,0.00
2022-10-31T00:48:42.533Z,0.00
2022-10-31T00:49:42.473Z,0.00
2022-10-31T00:50:42.506Z,0.00
2022-10-31T00:51:42.450Z,0.00
2022-10-31T00:52:42.439Z,0.00
2022-10-31T00:53:42.467Z,0.00
2022-10-31T00:54:42.472Z,0.00
2022-10-31T00:55:42.417Z,0.00
2022-10-31T00:56:42.529Z,0.00
2022-10-31T00:57:42.454Z,0.00
2022-10-31T00:58:42.486Z,0.00
2022-10-31T00:59:42.369Z,0.00
2022-10-31T01:00:43.693Z,0.00
2022-10-31T01:01:42.508Z,0.00
2022-10-31T01:02:42.516Z,0.00
2022-10-31T01:03:42.396Z,0.00
2022-10-31T01:04:42.429Z,0.00
2022-10-31T01:05:42.308Z,0.00
2022-10-31T01:06:42.323Z,0.00
2022-10-31T01:07:42.309Z,0.00
2022-10-31T01:08:42.356Z,0.00
2022-10-31T01:09:42.328Z,0.00
2022-10-31T01:10:42.338Z,0.00
2022-10-31T01:11:42.276Z,0.00
2022-10-31T01:12:42.295Z,0.00
2022-10-31T01:13:42.249Z,0.00
2022-10-31T01:14:42.326Z,0.00
2022-10-31T01:15:42.213Z,0.00
2022-10-31T01:16:42.326Z,0.00
2022-10-31T01:17:42.428Z,0.00
2022-10-31T01:18:42.323Z,0.00
2022-10-31T01:19:42.183Z,0.00
2022-10-31T01:20:42.171Z,0.00
2022-10-31T01:21:42.149Z,0.00
2022-10-31T01:22:42.185Z,0.00
2022-10-31T01:23:42.132Z,0.00
2022-10-31T01:24:42.189Z,0.00
2022-10-31T01:25:42.196Z,0.00
2022-10-31T01:26:42.140Z,0.00
2022-10-31T01:27:42.089Z,0.00
2022-10-31T01:28:42.090Z,0.00
2022-10-31T01:29:42.075Z,0.00
2022-10-31T01:30:42.106Z,0.00
2022-10-31T01:31:42.115Z,0.00
2022-10-31T01:32:42.114Z,0.00
2022-10-31T01:33:42.061Z,0.00
2022-10-31T01:34:42.372Z,0.00
2022-10-31T01:35:42.011Z,0.00
2022-10-31T01:36:42.071Z,0.00
2022-10-31T01:37:42.034Z,0.00
2022-10-31T01:38:41.986Z,0.00
2022-10-31T01:39:41.974Z,0.00
2022-10-31T01:40:42.027Z,0.00
2022-10-31T01:41:42.068Z,0.00
2022-10-31T01:42:42.001Z,0.00
2022-10-31T01:43:41.945Z,0.00
2022-10-31T01:44:41.956Z,0.00
2022-10-31T01:45:41.915Z,0.00
2022-10-31T01:46:41.908Z,0.00
2022-10-31T01:47:42.013Z,0.00
2022-10-31T01:48:43.330Z,0.00
2022-10-31T01:49:41.888Z,0.00
2022-10-31T01:50:41.881Z,0.00
2022-10-31T01:51:41.864Z,0.00
2022-10-31T01:52:41.896Z,0.00
2022-10-31T01:53:41.861Z,0.00
2022-10-31T01:54:41.872Z,0.00
2022-10-31T01:55:41.862Z,0.00
2022-10-31T01:56:41.827Z,0.00
2022-10-31T01:57:41.876Z,0.00
2022-10-31T01:58:41.783Z,0.00
2022-10-31T01:59:41.784Z,0.00
2022-10-31T02:00:42.001Z,0.00
2022-10-31T02:01:42.051Z,0.00
2022-10-31T02:02:42.066Z,0.00
2022-10-31T02:03:41.758Z,0.00
2022-10-31T02:04:41.749Z,0.00
2022-10-31T02:05:41.724Z,0.00
2022-10-31T02:06:41.869Z,0.00
2022-10-31T02:07:41.741Z,0.00
2022-10-31T02:08:41.804Z,0.00
2022-10-31T02:09:41.720Z,0.00
2022-10-31T02:10:41.665Z,0.00
2022-10-31T02:11:41.705Z,0.00
2022-10-31T02:12:41.705Z,0.00
2022-10-31T02:13:41.692Z,0.00
2022-10-31T02:14:41.634Z,0.00
2022-10-31T02:15:41.624Z,0.00
2022-10-31T02:16:41.599Z,0.00
2022-10-31T02:17:41.753Z,0.00
2022-10-31T02:18:41.613Z,0.00
2022-10-31T02:19:41.613Z,0.00
2022-10-31T02:20:41.605Z,0.00
2022-10-31T02:21:41.557Z,0.00
2022-10-31T02:22:41.586Z,0.00
2022-10-31T02:23:42.993Z,0.00
2022-10-31T02:24:41.528Z,0.00
2022-10-31T02:25:41.567Z,0.00
2022-10-31T02:26:41.590Z,0.00
2022-10-31T02:27:41.498Z,0.00
2022-10-31T02:28:41.547Z,0.00
2022-10-31T02:29:41.498Z,0.00
2022-10-31T02:30:41.476Z,0.00
2022-10-31T02:31:41.537Z,0.00
2022-10-31T02:32:41.452Z,0.00
2022-10-31T02:33:41.634Z,0.00
2022-10-31T02:34:41.426Z,0.00
2022-10-31T02:35:41.425Z,0.00
2022-10-31T02:36:41.451Z,0.00
2022-10-31T02:37:41.416Z,0.00
2022-10-31T02:38:41.452Z,0.00
2022-10-31T02:39:41.426Z,0.00
2022-10-31T02:40:41.475Z,0.00
2022-10-31T02:41:41.369Z,0.00
2022-10-31T02:42:41.345Z,0.00
2022-10-31T02:43:41.342Z,0.00
2022-10-31T02:44:41.432Z,0.00
2022-10-31T02:45:41.380Z,0.00
2022-10-31T02:46:41.387Z,0.00
2022-10-31T02:47:41.298Z,0.00
2022-10-31T02:48:41.350Z,0.00
2022-10-31T02:49:41.314Z,0.00
2022-10-31T02:50:41.330Z,0.00
2022-10-31T02:51:41.283Z,0.00
2022-10-31T02:52:41.463Z,0.00
2022-10-31T02:53:41.314Z,0.00
2022-10-31T02:54:41.251Z,0.00
2022-10-31T02:55:41.287Z,0.00
2022-10-31T02:56:41.210Z,0.00
2022-10-31T02:57:41.206Z,0.00
2022-10-31T02:58:41.224Z,0.00
2022-10-31T02:59:41.180Z,0.00
2022-10-31T03:00:41.224Z,0.00
2022-10-31T03:01:41.314Z,0.00
2022-10-31T03:02:41.347Z,0.00
2022-10-31T03:03:41.151Z,0.00
2022-10-31T03:04:41.139Z,0.00
2022-10-31T03:05:41.168Z,0.00
2022-10-31T03:06:41.114Z,0.00
2022-10-31T03:07:41.159Z,0.00
2022-10-31T03:08:41.153Z,0.00
2022-10-31T03:09:41.098Z,0.00
2022-10-31T03:10:41.069Z,0.00
2022-10-31T03:11:41.143Z,0.00
2022-10-31T03:12:44.494Z,0.00
2022-10-31T03:13:41.076Z,0.00
2022-10-31T03:14:41.085Z,0.00
2022-10-31T03:15:41.048Z,0.00
2022-10-31T03:16:41.018Z,0.00
2022-10-31T03:17:41.031Z,0.00
2022-10-31T03:18:41.079Z,0.00
2022-10-31T03:19:40.979Z,0.00
2022-10-31T03:20:40.999Z,0.00
2022-10-31T03:21:40.983Z,0.00
2022-10-31T03:22:40.962Z,0.00
2022-10-31T03:23:41.008Z,0.00
2022-10-31T03:24:40.986Z,0.00
2022-10-31T03:25:40.925Z,0.00
2022-10-31T03:26:40.980Z,0.00
2022-10-31T03:27:40.905Z,0.00
2022-10-31T03:28:40.945Z,0.00
2022-10-31T03:29:40.914Z,0.00
2022-10-31T03:30:40.879Z,0.00
2022-10-31T03:31:41.042Z,0.00
2022-10-31T03:32:40.899Z,0.00
2022-10-31T03:33:40.843Z,0.00
2022-10-31T03:34:40.836Z,0.00
2022-10-31T03:35:40.890Z,0.00
2022-10-31T03:36:40.872Z,0.00
2022-10-31T03:37:40.901Z,0.00
2022-10-31T03:38:40.801Z,0.00
2022-10-31T03:39:40.836Z,0.00
2022-10-31T03:40:40.776Z,0.00
2022-10-31T03:41:40.846Z,0.00
2022-10-31T03:42:40.808Z,0.00
2022-10-31T03:43:40.839Z,0.00
2022-10-31T03:44:40.737Z,0.00
2022-10-31T03:45:40.998Z,0.00
2022-10-31T03:46:40.717Z,0.00
2022-10-31T03:47:40.702Z,0.00
2022-10-31T03:48:40.711Z,0.00
2022-10-31T03:49:40.714Z,0.00
2022-10-31T03:50:40.685Z,0.00
2022-10-31T03:51:40.733Z,0.00
2022-10-31T03:52:40.655Z,0.00
2022-10-31T03:53:40.644Z,0.00
2022-10-31T03:54:40.687Z,0.00
2022-10-31T03:55:40.629Z,0.00
2022-10-31T03:56:40.657Z,0.00
2022-10-31T03:57:40.605Z,0.00
2022-10-31T03:58:40.699Z,0.00
2022-10-31T03:59:40.591Z,0.00
2022-10-31T04:00:40.580Z,0.00
2022-10-31T04:01:40.871Z,0.00
2022-10-31T04:02:40.740Z,0.00
2022-10-31T04:03:40.609Z,0.00
2022-10-31T04:04:40.657Z,0.00
2022-10-31T04:05:40.589Z,0.00
2022-10-31T04:06:40.515Z,0.00
2022-10-31T04:07:40.675Z,0.00
2022-10-31T04:08:40.568Z,0.00
2022-10-31T04:09:40.513Z,0.00
2022-10-31T04:10:40.541Z,0.00
2022-10-31T04:11:40.462Z,0.00
2022-10-31T04:12:40.457Z,0.00
2022-10-31T04:13:40.526Z,0.00
2022-10-31T04:14:40.437Z,0.00
2022-10-31T04:15:40.445Z,0.00
2022-10-31T04:16:40.412Z,0.00
2022-10-31T04:17:40.420Z,0.00
2022-10-31T04:18:40.451Z,0.00
2022-10-31T04:19:40.433Z,0.00
2022-10-31T04:20:40.417Z,0.00
2022-10-31T04:21:40.504Z,0.00
2022-10-31T04:22:40.449Z,0.00
2022-10-31T04:23:40.351Z,0.00
2022-10-31T04:24:40.391Z,0.00
2022-10-31T04:25:40.355Z,0.00
2022-10-31T04:26:40.325Z,0.00
2022-10-31T04:27:40.304Z,0.00
2022-10-31T04:28:40.291Z,0.00
2022-10-31T04:29:40.344Z,0.00
2022-10-31T04:30:40.324Z,0.00
2022-10-31T04:31:40.288Z,0.00
2022-10-31T04:32:40.312Z,0.00
2022-10-31T04:33:40.260Z,0.00
2022-10-31T04:34:40.246Z,0.00
2022-10-31T04:35:40.241Z,0.00
2022-10-31T04:36:40.267Z,0.00
2022-10-31T04:37:40.224Z,0.00
2022-10-31T04:38:40.255Z,0.00
2022-10-31T04:39:40.298Z,0.00
2022-10-31T04:40:40.198Z,0.00
2022-10-31T04:41:40.198Z,0.00
2022-10-31T04:42:40.201Z,0.00
2022-10-31T04:43:40.196Z,0.00
2022-10-31T04:44:40.180Z,0.00
2022-10-31T04:45:40.229Z,0.00
2022-10-31T04:46:40.158Z,0.00
2022-10-31T04:47:40.111Z,0.00
2022-10-31T04:48:40.100Z,0.00
2022-10-31T04:49:40.148Z,0.00
2022-10-31T04:50:40.173Z,0.00
2022-10-31T04:51:40.079Z,0.00
2022-10-31T04:52:40.066Z,0.00
2022-10-31T04:53:40.046Z,0.00
2022-10-31T04:54:40.188Z,0.00
2022-10-31T04:55:40.087Z,0.00
2022-10-31T04:56:40.066Z,0.00
2022-10-31T04:57:40.036Z,0.00
2022-10-31T04:58:40.007Z,0.00
2022-10-31T04:59:40.043Z,0.00
2022-10-31T05:00:39.986Z,0.00
2022-10-31T05:01:40.067Z,0.00
2022-10-31T05:02:42.133Z,0.00
2022-10-31T05:03:39.964Z,0.00
2022-10-31T05:04:40.051Z,0.00
2022-10-31T05:05:39.957Z,0.00
2022-10-31T05:06:39.946Z,0.00
2022-10-31T05:07:39.973Z,0.00
2022-10-31T05:08:39.951Z,0.00
2022-10-31T05:09:39.897Z,0.00
2022-10-31T05:10:39.888Z,0.00
2022-10-31T05:11:39.894Z,0.00
2022-10-31T05:12:39.864Z,0.00
2022-10-31T05:13:39.910Z,0.00
2022-10-31T05:14:41.450Z,0.00
2022-10-31T05:15:39.891Z,0.00
2022-10-31T05:16:39.850Z,0.00
2022-10-31T05:17:39.864Z,0.00
2022-10-31T05:18:39.903Z,0.00
2022-10-31T05:19:39.808Z,0.00
2022-10-31T05:20:39.828Z,0.00
2022-10-31T05:21:39.769Z,0.00
2022-10-31T05:22:39.772Z,0.00
2022-10-31T05:23:44.384Z,0.00
2022-10-31T05:24:39.744Z,0.00
2022-10-31T05:25:39.768Z,0.00
2022-10-31T05:26:39.747Z,0.00
2022-10-31T05:27:39.726Z,0.00
2022-10-31T05:28:39.680Z,1.00
2022-10-31T05:29:39.693Z,1.00
2022-10-31T05:30:39.724Z,0.00
2022-10-31T05:31:39.690Z,0.00
2022-10-31T05:32:39.637Z,2.00
2022-10-31T05:33:39.708Z,1.00
2022-10-31T05:34:39.707Z,0.00
2022-10-31T05:35:39.619Z,2.00
2022-10-31T05:36:39.582Z,2.00
2022-10-31T05:37:39.586Z,4.00
2022-10-31T05:38:39.550Z,8.00
2022-10-31T05:39:39.594Z,6.00
2022-10-31T05:40:39.635Z,4.00
2022-10-31T05:41:39.516Z,5.00
2022-10-31T05:42:39.586Z,7.00
2022-10-31T05:43:39.566Z,10.00
2022-10-31T05:44:39.508Z,12.00
2022-10-31T05:45:39.476Z,13.00
2022-10-31T05:46:39.551Z,15.00
2022-10-31T05:47:39.488Z,19.00
2022-10-31T05:48:39.458Z,22.00
2022-10-31T05:49:39.488Z,26.00
2022-10-31T05:50:39.468Z,32.00
2022-10-31T05:51:39.439Z,42.00
2022-10-31T05:52:39.419Z,45.00
2022-10-31T05:53:39.507Z,57.00
2022-10-31T05:54:39.436Z,68.00
2022-10-31T05:55:39.380Z,80.00
2022-10-31T05:56:39.402Z,92.00
2022-10-31T05:57:39.419Z,114.00
2022-10-31T05:58:39.360Z,127.00
2022-10-31T05:59:39.358Z,140.00
2022-10-31T06:00:39.339Z,164.00
2022-10-31T06:01:39.452Z,187.00
2022-10-31T06:02:39.317Z,205.00
2022-10-31T06:03:39.412Z,226.00
2022-10-31T06:04:39.352Z,251.00
2022-10-31T06:05:39.348Z,278.00
2022-10-31T06:06:39.402Z,309.00
2022-10-31T06:07:39.278Z,339.00
2022-10-31T06:08:39.265Z,371.00
2022-10-31T06:09:39.238Z,401.00
2022-10-31T06:10:39.250Z,434.00
2022-10-31T06:11:39.237Z,471.00
2022-10-31T06:12:39.266Z,508.00
2022-10-31T06:13:39.194Z,547.00
2022-10-31T06:14:39.236Z,589.00
2022-10-31T06:15:39.233Z,629.00
2022-10-31T06:16:39.241Z,669.00
2022-10-31T06:17:39.176Z,719.00
2022-10-31T06:18:39.305Z,766.00
2022-10-31T06:19:39.197Z,811.00
2022-10-31T06:20:39.136Z,852.00
2022-10-31T06:21:39.206Z,903.00
2022-10-31T06:22:39.113Z,951.00
2022-10-31T06:23:39.190Z,995.00
2022-10-31T06:24:39.103Z,1062.00
2022-10-31T06:25:39.093Z,1110.00
2022-10-31T06:26:39.142Z,1168.00
2022-10-31T06:27:39.104Z,1235.00
2022-10-31T06:28:39.053Z,1295.00
2022-10-31T06:29:39.082Z,1242.00
2022-10-31T06:30:39.035Z,1304.00
2022-10-31T06:31:39.023Z,1427.00
2022-10-31T06:32:39.139Z,1492.00
2022-10-31T06:33:39.058Z,1566.00
2022-10-31T06:34:38.989Z,1543.00
2022-10-31T06:35:38.988Z,1632.00
2022-10-31T06:36:38.978Z,1712.00
2022-10-31T06:37:39.431Z,1781.00
2022-10-31T06:38:38.960Z,1845.00
2022-10-31T06:39:38.938Z,1910.00
2022-10-31T06:40:38.945Z,1985.00
2022-10-31T06:41:38.932Z,2059.00
2022-10-31T06:42:39.040Z,2135.00
2022-10-31T06:43:39.070Z,2216.00
2022-10-31T06:44:38.953Z,2295.00
2022-10-31T06:45:38.879Z,2392.00
2022-10-31T06:46:38.938Z,2499.00
2022-10-31T06:47:56.766Z,2544.00
2022-10-31T06:48:38.902Z,2589.00
2022-10-31T06:49:38.932Z,2616.00
2022-10-31T06:50:38.890Z,2673.00
2022-10-31T06:51:38.832Z,2879.00
2022-10-31T06:52:38.915Z,2992.00
2022-10-31T06:53:38.897Z,3144.00
2022-10-31T06:54:38.820Z,3307.00
2022-10-31T06:55:39.005Z,3433.00
2022-10-31T06:56:38.775Z,3543.00
2022-10-31T06:57:38.801Z,3681.00
2022-10-31T06:58:38.863Z,3822.00
2022-10-31T06:59:38.747Z,3905.00
2022-10-31T07:00:38.870Z,3655.00
2022-10-31T07:01:38.848Z,3436.00
2022-10-31T07:02:38.821Z,3118.00
2022-10-31T07:03:38.707Z,4587.00
2022-10-31T07:04:38.695Z,6738.00
2022-10-31T07:05:38.743Z,6658.00
2022-10-31T07:06:38.703Z,6695.00
2022-10-31T07:07:38.713Z,6670.00
2022-10-31T07:08:38.731Z,6776.00
2022-10-31T07:09:38.780Z,6864.00
2022-10-31T07:10:40.513Z,7431.00
2022-10-31T07:11:38.659Z,7768.00
2022-10-31T07:12:38.669Z,8026.00
2022-10-31T07:13:38.647Z,7998.00
2022-10-31T07:14:38.594Z,8316.00
2022-10-31T07:15:38.580Z,8577.00
2022-10-31T07:16:38.661Z,9321.00
2022-10-31T07:17:38.642Z,10109.00
2022-10-31T07:18:38.618Z,9659.00
2022-10-31T07:19:38.602Z,10027.00
2022-10-31T07:20:38.539Z,10730.00
2022-10-31T07:21:38.574Z,10580.00
2022-10-31T07:22:38.530Z,10723.00
2022-10-31T07:23:38.663Z,10976.00
2022-10-31T07:24:38.490Z,11206.00
2022-10-31T07:25:38.486Z,11651.00
2022-10-31T07:26:38.485Z,12090.00
2022-10-31T07:27:41.695Z,9579.00
2022-10-31T07:28:38.565Z,13166.00
2022-10-31T07:29:38.444Z,12895.00
2022-10-31T07:30:38.499Z,12436.00
2022-10-31T07:31:38.433Z,12657.00
2022-10-31T07:32:38.438Z,12436.00
2022-10-31T07:33:38.469Z,11219.00
2022-10-31T07:34:41.227Z,11467.00
2022-10-31T07:35:38.437Z,10478.00
2022-10-31T07:36:38.398Z,9894.00
2022-10-31T07:37:38.378Z,10919.00
2022-10-31T07:38:38.426Z,9756.00
2022-10-31T07:39:39.074Z,9632.00
2022-10-31T07:40:38.392Z,9922.00
2022-10-31T07:41:38.390Z,8689.00
2022-10-31T07:42:38.439Z,8524.00
2022-10-31T07:43:38.420Z,8946.00
2022-10-31T07:44:38.322Z,9265.00
2022-10-31T07:45:38.330Z,9682.00
2022-10-31T07:46:38.275Z,8602.00
2022-10-31T07:47:38.308Z,10370.00
2022-10-31T07:48:38.378Z,10713.00
2022-10-31T07:49:38.300Z,11181.00
2022-10-31T07:50:38.244Z,10729.00
2022-10-31T07:51:38.982Z,9374.00
2022-10-31T07:52:38.216Z,8666.00
2022-10-31T07:53:38.284Z,8645.00
2022-10-31T07:54:38.217Z,8676.00
2022-10-31T07:55:38.263Z,8447.00
2022-10-31T07:56:38.191Z,8628.00
2022-10-31T07:57:38.212Z,8121.00
2022-10-31T07:58:38.158Z,8192.00
2022-10-31T07:59:38.142Z,8704.00
2022-10-31T08:00:38.330Z,9501.00
2022-10-31T08:01:38.199Z,8591.00
2022-10-31T08:02:38.114Z,8399.00
2022-10-31T08:03:38.118Z,8703.00
2022-10-31T08:04:38.212Z,8481.00
2022-10-31T08:05:38.248Z,9158.00
2022-10-31T08:06:38.123Z,10940.00
2022-10-31T08:07:38.206Z,9671.00
2022-10-31T08:08:38.535Z,9641.00
2022-10-31T08:09:38.120Z,11245.00
2022-10-31T08:10:38.081Z,10996.00
2022-10-31T08:11:38.040Z,11059.00
2022-10-31T08:12:38.014Z,12719.00
2022-10-31T08:13:38.111Z,12385.00
2022-10-31T08:14:38.008Z,10635.00
2022-10-31T08:15:37.980Z,10371.00
2022-10-31T08:16:38.094Z,10353.00
2022-10-31T08:17:37.976Z,11510.00
2022-10-31T08:18:38.012Z,13292.00
2022-10-31T08:19:37.955Z,13064.00
2022-10-31T08:20:37.951Z,12991.00
2022-10-31T08:21:38.016Z,13083.00
2022-10-31T08:22:42.908Z,13393.00
2022-10-31T08:23:39.108Z,13461.00
2022-10-31T08:25:38.868Z,13593.00
2022-10-31T08:26:37.894Z,13569.00
2022-10-31T08:27:38.085Z,12730.00
2022-10-31T08:28:37.870Z,11994.00
2022-10-31T08:29:37.920Z,11125.00
2022-10-31T08:30:37.934Z,11114.00
2022-10-31T08:31:41.839Z,10987.00
2022-10-31T08:32:37.892Z,10667.00
2022-10-31T08:33:37.830Z,10385.00
2022-10-31T08:34:37.792Z,10391.00
2022-10-31T08:35:37.902Z,10147.00
2022-10-31T08:36:37.765Z,10056.00
2022-10-31T08:37:38.087Z,9965.00
2022-10-31T08:38:37.833Z,9965.00
2022-10-31T08:39:37.738Z,9941.00
2022-10-31T08:40:37.727Z,10032.00
2022-10-31T08:41:37.783Z,9915.00
2022-10-31T08:42:37.716Z,9847.00
2022-10-31T08:43:37.755Z,9943.00
2022-10-31T08:44:37.690Z,10061.00
2022-10-31T08:45:37.938Z,10155.00
2022-10-31T08:46:41.505Z,10299.00
2022-10-31T08:47:43.981Z,10385.00
2022-10-31T08:48:39.131Z,10399.00
2022-10-31T08:49:41.990Z,10500.00
2022-10-31T08:50:37.635Z,10513.00
2022-10-31T08:51:37.931Z,10607.00
2022-10-31T08:53:03.156Z,10601.00
2022-10-31T08:53:38.379Z,10771.00
2022-10-31T08:54:38.008Z,10726.00
2022-10-31T08:55:41.306Z,10750.00
2022-10-31T08:56:37.926Z,10771.00
2022-10-31T08:57:39.091Z,10852.00
2022-10-31T08:58:40.406Z,10975.00
2022-10-31T08:59:37.649Z,10892.00
2022-10-31T09:00:38.005Z,11005.00
2022-10-31T09:01:37.914Z,11041.00
2022-10-31T09:02:38.823Z,11252.00
2022-10-31T09:03:39.598Z,11209.00
2022-10-31T09:04:40.282Z,11233.00
2022-10-31T09:05:39.054Z,11216.00
2022-10-31T09:06:50.412Z,11325.00
2022-10-31T09:07:37.783Z,11376.00
2022-10-31T09:08:40.226Z,11441.00
2022-10-31T09:09:37.537Z,11384.00
2022-10-31T09:10:38.882Z,11345.00
2022-10-31T09:11:39.179Z,11285.00
2022-10-31T09:12:38.576Z,11473.00
2022-10-31T09:13:41.503Z,11556.00
2022-10-31T09:14:37.501Z,11594.00
2022-10-31T09:15:37.503Z,11517.00
2022-10-31T09:16:37.422Z,11619.00
2022-10-31T09:17:37.604Z,11736.00
2022-10-31T09:18:37.836Z,11677.00
2022-10-31T09:19:39.094Z,11780.00
2022-10-31T09:20:39.878Z,11949.00
2022-10-31T09:21:37.353Z,11920.00
2022-10-31T09:22:37.652Z,12009.00
2022-10-31T09:23:39.577Z,12160.00
2022-10-31T09:24:37.443Z,12250.00
2022-10-31T09:25:38.779Z,12266.00
2022-10-31T09:26:37.473Z,12295.00
2022-10-31T09:27:37.677Z,11922.00
2022-10-31T09:28:38.431Z,11125.00
2022-10-31T09:29:37.459Z,13711.00
2022-10-31T09:30:37.790Z,16559.00
2022-10-31T09:31:43.737Z,18418.00
2022-10-31T09:32:37.490Z,19367.00
2022-10-31T09:33:38.142Z,20096.00
2022-10-31T09:34:37.972Z,23420.00
2022-10-31T09:35:37.306Z,22113.00
2022-10-31T09:36:38.616Z,28877.00
2022-10-31T09:37:37.266Z,29421.00
2022-10-31T09:38:37.583Z,28423.00
2022-10-31T09:39:37.150Z,28371.00
2022-10-31T09:40:37.337Z,27377.00
2022-10-31T09:41:37.123Z,26022.00
2022-10-31T09:42:37.195Z,28475.00
2022-10-31T09:43:38.411Z,30585.00
2022-10-31T09:44:37.175Z,27076.00
2022-10-31T09:45:39.012Z,29461.00
2022-10-31T09:46:37.158Z,24880.00
2022-10-31T09:47:37.113Z,24826.00
2022-10-31T09:48:37.183Z,26361.00
2022-10-31T09:49:38.496Z,24594.00
2022-10-31T09:50:37.108Z,26353.00
2022-10-31T09:51:37.310Z,24268.00
2022-10-31T09:52:37.354Z,24328.00
2022-10-31T09:53:37.121Z,26570.00
2022-10-31T09:54:37.137Z,25859.00
2022-10-31T09:55:37.083Z,23152.00
2022-10-31T09:56:37.043Z,21691.00
2022-10-31T09:57:37.136Z,19887.00
2022-10-31T09:58:38.980Z,20801.00
2022-10-31T09:59:36.996Z,21133.00
2022-10-31T10:00:36.951Z,20490.00
2022-10-31T10:01:37.044Z,19995.00
2022-10-31T10:02:36.924Z,19974.00
2022-10-31T10:03:36.898Z,20877.00
2022-10-31T10:04:37.012Z,20104.00
2022-10-31T10:05:36.905Z,17362.00
2022-10-31T10:06:36.893Z,20637.00
2022-10-31T10:07:36.915Z,19250.00
2022-10-31T10:08:36.849Z,17709.00
2022-10-31T10:09:36.850Z,20256.00
2022-10-31T10:10:36.919Z,21054.00
2022-10-31T10:11:36.969Z,19586.00
2022-10-31T10:12:36.883Z,24042.00
2022-10-31T10:13:36.922Z,20993.00
2022-10-31T10:14:36.853Z,19788.00
2022-10-31T10:15:36.850Z,19981.00
2022-10-31T10:16:36.811Z,18282.00
2022-10-31T10:17:36.938Z,19077.00
2022-10-31T10:18:36.757Z,17836.00
2022-10-31T10:19:37.047Z,16551.00
2022-10-31T10:20:36.737Z,16501.00
2022-10-31T10:21:36.763Z,17279.00
2022-10-31T10:22:36.738Z,16741.00
2022-10-31T10:23:36.907Z,18313.00
2022-10-31T10:24:36.712Z,15870.00
2022-10-31T10:25:36.747Z,17083.00
2022-10-31T10:26:36.700Z,20471.00
2022-10-31T10:27:36.678Z,19348.00
2022-10-31T10:28:36.755Z,19620.00
2022-10-31T10:29:36.663Z,20342.00
2022-10-31T10:30:36.653Z,19291.00
2022-10-31T10:31:36.675Z,19891.00
2022-10-31T10:32:36.646Z,18568.00
2022-10-31T10:33:36.598Z,19628.00
2022-10-31T10:34:36.631Z,19892.00
2022-10-31T10:35:37.531Z,21044.00
2022-10-31T10:36:36.749Z,19751.00
2022-10-31T10:37:37.639Z,22447.00
2022-10-31T10:38:36.662Z,21250.00
2022-10-31T10:39:37.077Z,18379.00
2022-10-31T10:40:36.620Z,18450.00
2022-10-31T10:41:36.572Z,16743.00
2022-10-31T10:42:37.069Z,17648.00
2022-10-31T10:43:36.635Z,17750.00
2022-10-31T10:44:36.571Z,17309.00
2022-10-31T10:45:36.540Z,17257.00
2022-10-31T10:46:36.560Z,16627.00
2022-10-31T10:47:36.475Z,16146.00
2022-10-31T10:48:36.448Z,15903.00
2022-10-31T10:49:36.505Z,15717.00
2022-10-31T10:50:36.574Z,15324.00
2022-10-31T10:52:43.413Z,16724.00
2022-10-31T10:53:36.508Z,18696.00
2022-10-31T10:54:36.477Z,17997.00
2022-10-31T10:55:36.378Z,19213.00
2022-10-31T10:56:36.401Z,19190.00
2022-10-31T10:57:36.408Z,21600.00
2022-10-31T10:58:36.388Z,25113.00
2022-10-31T10:59:36.461Z,26270.00
2022-10-31T11:00:36.650Z,27759.00
2022-10-31T11:01:36.977Z,29699.00
2022-10-31T11:02:36.358Z,32281.00
2022-10-31T11:03:36.337Z,35105.00
2022-10-31T11:04:36.298Z,33376.00
2022-10-31T11:05:36.312Z,35526.00
2022-10-31T11:06:36.394Z,32474.00
2022-10-31T11:07:36.438Z,27946.00
2022-10-31T11:08:36.277Z,30310.00
2022-10-31T11:09:36.315Z,29046.00
2022-10-31T11:10:36.259Z,26855.00
2022-10-31T11:11:36.259Z,25169.00
2022-10-31T11:12:36.322Z,29915.00
2022-10-31T11:13:36.346Z,23976.00
2022-10-31T11:14:36.201Z,25457.00
2022-10-31T11:15:36.238Z,27693.00
2022-10-31T11:16:40.787Z,21337.00
2022-10-31T11:17:36.247Z,28270.00
2022-10-31T11:18:36.240Z,25495.00
2022-10-31T11:19:36.215Z,22072.00
2022-10-31T11:20:36.291Z,27436.00
2022-10-31T11:21:36.302Z,33121.00
2022-10-31T11:22:36.149Z,29355.00
2022-10-31T11:23:36.091Z,20498.00
2022-10-31T11:24:36.218Z,25809.00
2022-10-31T11:25:36.078Z,33225.00
2022-10-31T11:26:36.196Z,37433.00
2022-10-31T11:27:36.134Z,40348.00
2022-10-31T11:28:36.322Z,35940.00
2022-10-31T11:29:36.309Z,35376.00
2022-10-31T11:30:36.179Z,37763.00
2022-10-31T11:31:36.096Z,33947.00
2022-10-31T11:32:36.151Z,27193.00
2022-10-31T11:33:36.438Z,33306.00
2022-10-31T11:34:36.186Z,25648.00
2022-10-31T11:36:36.200Z,38544.00
2022-10-31T11:37:36.059Z,33227.00
2022-10-31T11:38:36.068Z,37778.00
2022-10-31T11:39:36.076Z,69301.00
2022-10-31T11:40:35.958Z,68529.00
2022-10-31T11:41:36.253Z,40529.00
2022-10-31T11:42:36.177Z,36131.00
2022-10-31T11:43:36.041Z,36248.00
2022-10-31T11:44:36.292Z,71890.00
2022-10-31T11:45:36.260Z,68827.00
2022-10-31T11:46:35.971Z,65330.00
2022-10-31T11:47:35.966Z,36052.00
2022-10-31T11:48:36.209Z,33393.00
2022-10-31T11:49:35.993Z,31384.00
2022-10-31T11:50:35.912Z,30280.00
2022-10-31T11:51:35.830Z,30334.00
2022-10-31T11:52:35.966Z,29368.00
2022-10-31T11:53:35.894Z,28764.00
2022-10-31T11:54:35.890Z,29657.00
2022-10-31T11:55:35.890Z,27284.00
2022-10-31T11:56:37.160Z,29384.00
2022-10-31T11:57:35.771Z,26863.00
2022-10-31T11:58:35.783Z,27762.00
2022-10-31T11:59:35.876Z,26531.00
2022-10-31T12:00:37.686Z,25829.00
2022-10-31T12:01:37.748Z,25298.00
2022-10-31T12:02:35.812Z,26022.00
2022-10-31T12:03:35.749Z,25882.00
2022-10-31T12:04:35.821Z,25467.00
2022-10-31T12:05:35.740Z,23836.00
2022-10-31T12:06:35.731Z,20887.00
2022-10-31T12:07:36.450Z,25840.00
2022-10-31T12:08:35.684Z,22724.00
2022-10-31T12:09:35.747Z,26775.00
2022-10-31T12:10:36.855Z,27660.00
2022-10-31T12:11:35.807Z,27591.00
2022-10-31T12:12:35.649Z,27476.00
2022-10-31T12:13:35.775Z,26370.00
2022-10-31T12:14:35.661Z,23327.00
2022-10-31T12:15:35.637Z,21143.00
2022-10-31T12:16:35.702Z,18717.00
2022-10-31T12:17:35.801Z,21620.00
2022-10-31T12:18:35.670Z,23818.00
2022-10-31T12:19:35.551Z,22004.00
2022-10-31T12:20:35.578Z,19362.00
2022-10-31T12:21:35.585Z,18848.00
2022-10-31T12:22:35.618Z,5759.00
2022-10-31T12:23:35.657Z,39411.00
2022-10-31T12:24:35.588Z,33730.00
2022-10-31T12:25:35.504Z,36123.00
2022-10-31T12:26:35.695Z,40938.00
2022-10-31T12:27:35.513Z,40927.00
2022-10-31T12:28:35.615Z,37340.00
2022-10-31T12:29:35.534Z,33830.00
2022-10-31T12:30:35.494Z,27027.00
2022-10-31T12:31:35.565Z,26235.00
2022-10-31T12:32:35.445Z,20532.00
2022-10-31T12:33:35.420Z,16841.00